Time;durP1;ratioP1;P1;durP2;ratioP2;P2;SDS_P1;SDS_P2;PMS_P1;PMS_P2;Temp;Humidity;BMP_temperature;BMP_pressure;BME280_temperature;BME280_humidity;BME280_pressure;Samples;Min_cycle;Max_cycle;Signal;HPM_P1;HPM_P2
2022/08/27 00:01:05;;;;;;;0.70;0.70;;;;;;;24.79;41.57;101047.75;5098975;28;20462;-78
2022/08/27 00:03:31;;;;;;;0.60;0.60;;;;;;;24.80;41.74;101041.16;5120982;28;20016;-77
2022/08/27 00:05:56;;;;;;;0.70;0.70;;;;;;;24.83;41.78;101046.94;5117238;28;20102;-78
2022/08/27 00:08:22;;;;;;;0.60;0.60;;;;;;;24.81;41.72;101040.09;5116907;28;20353;-78
2022/08/27 00:10:47;;;;;;;0.52;0.52;;;;;;;24.78;41.87;101046.91;5117357;28;20024;-78
2022/08/27 00:13:14;;;;;;;0.70;0.70;;;;;;;24.79;41.91;101043.09;5116784;28;20470;-78
2022/08/27 00:15:40;;;;;;;0.60;0.60;;;;;;;24.78;41.86;101043.34;5117106;28;20040;-78
2022/08/27 00:18:06;;;;;;;0.50;0.50;;;;;;;24.79;41.92;101040.34;5118376;28;20491;-78
2022/08/27 00:20:31;;;;;;;0.70;0.70;;;;;;;24.79;41.72;101043.09;5117443;28;20521;-78
2022/08/27 00:22:57;;;;;;;0.50;0.50;;;;;;;24.80;41.70;101038.44;5116413;28;20047;-78
2022/08/27 00:25:22;;;;;;;0.47;0.47;;;;;;;24.80;41.67;101042.00;5117226;28;20076;-78
2022/08/27 00:27:48;;;;;;;0.60;0.60;;;;;;;24.81;41.78;101037.38;5098650;28;20023;-78
2022/08/27 00:30:15;;;;;;;0.50;0.50;;;;;;;24.81;41.78;101042.81;5098549;28;20024;-78
2022/08/27 00:32:41;;;;;;;0.90;0.80;;;;;;;24.81;41.84;101038.16;5116822;28;20031;-78
2022/08/27 00:35:07;;;;;;;0.40;0.40;;;;;;;24.80;41.73;101036.53;5116566;28;20047;-78
2022/08/27 00:37:32;;;;;;;0.70;0.70;;;;;;;24.78;41.81;101033.22;5116354;28;20466;-78
2022/08/27 00:39:58;;;;;;;0.60;0.60;;;;;;;24.80;41.71;101035.72;5116699;28;20024;-78
2022/08/27 00:42:25;;;;;;;0.60;0.60;;;;;;;24.82;41.76;101028.91;5116412;28;20034;-78
2022/08/27 00:44:50;;;;;;;0.70;0.70;;;;;;;24.76;41.65;101015.47;5116422;28;20046;-78
2022/08/27 00:47:19;;;;;;;0.68;0.68;;;;;;;24.78;41.78;101016.84;5116546;28;20019;-78
2022/08/27 00:50:04;;;;;;;0.55;0.55;;;;;;;24.83;41.85;101019.59;5081700;28;20035;-78
2022/08/27 00:52:35;;;;;;;0.75;0.75;;;;;;;24.82;41.88;101006.19;5097849;28;20024;-78
2022/08/27 00:55:13;;;;;;;0.70;0.70;;;;;;;24.82;41.73;101007.03;5081390;28;20370;-78
2022/08/27 00:57:39;;;;;;;0.60;0.60;;;;;;;24.81;41.73;101008.09;5103812;28;20592;-78
2022/08/27 01:00:06;;;;;;;0.60;0.60;;;;;;;24.80;41.66;101005.63;5077611;28;20035;-78
2022/08/27 01:02:32;;;;;;;0.70;0.70;;;;;;;24.81;41.83;101004.56;5095923;28;20032;-78
2022/08/27 01:05:14;;;;;;;0.60;0.60;;;;;;;24.81;41.90;100999.91;5095763;28;20024;-78
2022/08/27 01:07:41;;;;;;;0.60;0.60;;;;;;;24.79;42.00;101002.09;5095835;28;20020;-78
2022/08/27 01:10:14;;;;;;;0.60;0.60;;;;;;;24.80;41.99;101001.00;5095628;28;20028;-78
2022/08/27 01:12:40;;;;;;;0.80;0.80;;;;;;;24.81;41.66;101001.81;5095879;28;20080;-78
2022/08/27 01:15:07;;;;;;;0.60;0.60;;;;;;;24.77;41.88;100998.81;5095749;28;20020;-78
2022/08/27 01:17:37;;;;;;;0.70;0.70;;;;;;;24.79;41.96;101006.75;5077537;28;20085;-78
2022/08/27 01:20:07;;;;;;;0.60;0.60;;;;;;;24.77;41.85;100998.81;5077798;28;20366;-78
2022/08/27 01:22:55;;;;;;;0.50;0.50;;;;;;;24.78;42.04;101003.16;5077111;28;20456;-78
2022/08/27 01:25:22;;;;;;;0.75;0.75;;;;;;;24.81;41.71;100988.16;5013175;28;20144;-78
2022/08/27 01:27:49;;;;;;;0.70;0.70;;;;;;;24.79;41.68;100993.06;4997077;28;20104;-78
2022/08/27 01:30:17;;;;;;;0.60;0.60;;;;;;;24.79;42.14;100996.63;5013568;28;20037;-78
2022/08/27 01:32:42;;;;;;;0.63;0.63;;;;;;;24.80;41.86;100997.44;5013171;28;20044;-78
2022/08/27 01:35:09;;;;;;;0.60;0.60;;;;;;;24.78;41.87;100989.50;5013259;28;20475;-78
2022/08/27 01:37:34;;;;;;;0.60;0.60;;;;;;;24.77;41.78;100996.06;5013375;28;20413;-78
2022/08/27 01:40:00;;;;;;;0.60;0.60;;;;;;;24.79;41.97;100993.88;5013545;28;20030;-78
2022/08/27 01:42:27;;;;;;;0.70;0.70;;;;;;;24.79;41.86;100996.63;5013333;28;20440;-78
2022/08/27 01:45:05;;;;;;;0.60;0.60;;;;;;;24.82;42.04;100989.78;5013346;28;20064;-78
2022/08/27 01:47:30;;;;;;;0.60;0.60;;;;;;;24.80;41.74;100987.34;5013071;28;20096;-78
2022/08/27 01:49:56;;;;;;;0.57;0.57;;;;;;;24.80;41.88;100984.63;4997625;28;20042;-78
2022/08/27 01:52:23;;;;;;;0.70;0.70;;;;;;;24.81;41.80;100986.25;5014282;28;20499;-78
2022/08/27 01:54:50;;;;;;;0.70;0.70;;;;;;;24.80;42.10;100976.41;4999222;28;20048;-79
2022/08/27 01:57:16;;;;;;;0.60;0.60;;;;;;;24.80;42.06;100978.31;5016524;28;20029;-79
2022/08/27 01:59:41;;;;;;;0.57;0.57;;;;;;;24.80;41.87;100975.56;5024168;28;20158;-77
2022/08/27 02:02:07;;;;;;;0.80;0.80;;;;;;;24.80;41.77;100965.47;5047132;28;20040;-79
2022/08/27 02:04:33;;;;;;;0.70;0.70;;;;;;;24.83;41.85;100969.56;5067130;28;20044;-78
2022/08/27 02:06:59;;;;;;;0.50;0.50;;;;;;;24.81;42.18;100969.84;5086527;28;20036;-77
2022/08/27 02:09:24;;;;;;;0.63;0.63;;;;;;;24.81;41.88;100966.28;5088838;28;20374;-77
2022/08/27 02:11:50;;;;;;;0.77;0.77;;;;;;;24.80;42.14;100957.28;5088639;28;20021;-77
2022/08/27 02:14:15;;;;;;;0.70;0.70;;;;;;;24.81;41.83;100964.38;5090344;28;20025;-77
2022/08/27 02:16:41;;;;;;;0.95;0.85;;;;;;;24.80;41.87;100976.41;5087584;28;20037;-78
2022/08/27 02:19:06;;;;;;;0.55;0.55;;;;;;;24.82;41.83;100960.56;5087428;28;20036;-78
2022/08/27 02:21:32;;;;;;;0.60;0.60;;;;;;;24.81;42.17;100952.63;5087822;28;20540;-78
2022/08/27 02:24:01;;;;;;;0.70;0.70;;;;;;;24.84;42.03;100955.63;5090790;28;20082;-77
2022/08/27 02:26:26;;;;;;;0.60;0.60;;;;;;;24.80;42.29;100954.53;5091360;28;20038;-78
2022/08/27 02:28:52;;;;;;;0.60;0.60;;;;;;;24.80;42.27;100951.81;5084697;28;20052;-78
2022/08/27 02:31:18;;;;;;;0.60;0.60;;;;;;;24.81;42.00;100956.16;5078957;28;20040;-78
2022/08/27 02:33:43;;;;;;;0.70;0.70;;;;;;;24.83;42.27;100955.91;5080840;28;20028;-78
2022/08/27 02:36:09;;;;;;;0.45;0.45;;;;;;;24.82;42.28;100957.81;5103925;28;20024;-78
2022/08/27 02:38:35;;;;;;;0.60;0.60;;;;;;;24.84;41.90;100955.63;5099710;28;20024;-78
2022/08/27 02:41:00;;;;;;;0.70;0.70;;;;;;;24.81;42.16;100961.63;5099333;28;20462;-78
2022/08/27 02:43:26;;;;;;;0.77;0.77;;;;;;;24.80;42.31;100951.81;5103439;28;20024;-78
2022/08/27 02:45:52;;;;;;;0.70;0.70;;;;;;;24.81;42.11;100947.16;5106627;28;20084;-78
2022/08/27 02:48:18;;;;;;;0.75;0.75;;;;;;;24.80;42.26;100948.22;5105443;28;20020;-78
2022/08/27 02:50:44;;;;;;;0.60;0.60;;;;;;;24.79;42.33;100947.41;5106925;28;20028;-78
2022/08/27 02:53:10;;;;;;;0.70;0.70;;;;;;;24.81;42.50;100947.16;5108592;28;20048;-78
2022/08/27 02:55:35;;;;;;;0.70;0.70;;;;;;;24.80;42.37;100949.06;5108827;28;20031;-78
2022/08/27 02:58:01;;;;;;;0.60;0.60;;;;;;;24.80;42.18;100943.63;5118125;28;20016;-78
2022/08/27 03:00:27;;;;;;;0.80;0.80;;;;;;;24.83;42.50;100945.78;5120799;28;20382;-78
2022/08/27 03:02:53;;;;;;;0.70;0.70;;;;;;;24.82;42.55;100946.88;5118599;28;20045;-78
2022/08/27 03:05:19;;;;;;;0.70;0.70;;;;;;;24.81;42.61;100938.97;5118611;28;20027;-78
2022/08/27 03:07:44;;;;;;;0.70;0.70;;;;;;;24.80;42.39;100938.16;5118555;28;20419;-78
2022/08/27 03:10:12;;;;;;;0.70;0.70;;;;;;;24.82;42.37;100944.16;5118943;28;20403;-78
2022/08/27 03:12:37;;;;;;;0.80;0.77;;;;;;;24.83;42.63;100937.59;5118548;28;20462;-78
2022/08/27 03:15:04;;;;;;;0.63;0.63;;;;;;;24.81;42.35;100939.75;5117946;28;20031;-78
2022/08/27 03:20:14;;;;;;;0.85;0.75;;;;;;;24.82;42.48;100941.44;5117791;28;20127;-78
2022/08/27 03:22:40;;;;;;;0.90;0.90;;;;;;;24.83;42.43;100936.78;5118408;28;20023;-78
2022/08/27 03:25:07;;;;;;;0.90;0.90;;;;;;;24.82;42.66;100935.97;5118371;28;20458;-78
2022/08/27 03:27:33;;;;;;;0.70;0.70;;;;;;;24.82;42.62;100946.88;5118598;28;20081;-78
2022/08/27 03:30:01;;;;;;;0.68;0.68;;;;;;;24.81;42.69;100939.75;5118887;28;20027;-78
2022/08/27 03:32:26;;;;;;;0.60;0.60;;;;;;;24.82;42.55;100938.69;5118149;28;20027;-78
2022/08/27 03:34:52;;;;;;;0.80;0.80;;;;;;;24.79;42.76;100931.03;5118280;28;20070;-78
2022/08/27 03:37:17;;;;;;;0.60;0.60;;;;;;;24.83;42.52;100926.66;5118428;28;20047;-78
2022/08/27 03:39:43;;;;;;;0.60;0.60;;;;;;;24.82;42.86;100932.38;5118132;28;20381;-78
2022/08/27 03:42:09;;;;;;;0.70;0.70;;;;;;;24.84;42.68;100931.03;5118625;28;20028;-78
2022/08/27 03:44:34;;;;;;;0.75;0.75;;;;;;;24.83;42.84;100932.13;5118021;28;20032;-78
2022/08/27 03:47:00;;;;;;;0.63;0.63;;;;;;;24.83;42.68;100931.31;5118162;28;20527;-78
2022/08/27 03:49:25;;;;;;;0.73;0.73;;;;;;;24.81;42.76;100934.31;5118890;28;20028;-78
2022/08/27 03:51:51;;;;;;;0.57;0.57;;;;;;;24.84;42.51;100933.78;5118634;28;20015;-78
2022/08/27 03:54:17;;;;;;;0.93;0.93;;;;;;;24.81;43.03;100937.03;5118163;28;20050;-78
2022/08/27 03:56:42;;;;;;;0.80;0.80;;;;;;;24.82;43.01;100935.97;5116362;28;20083;-78
2022/08/27 03:59:08;;;;;;;0.70;0.70;;;;;;;24.84;42.90;100936.50;5097478;28;20099;-78
2022/08/27 04:01:34;;;;;;;0.70;0.70;;;;;;;24.84;42.70;100928.31;5096999;28;20028;-78
2022/08/27 04:03:59;;;;;;;0.70;0.70;;;;;;;24.83;42.82;100925.84;5097265;28;20051;-78
2022/08/27 04:06:25;;;;;;;0.80;0.80;;;;;;;24.85;43.07;100927.22;5096187;28;20454;-78
2022/08/27 04:08:50;;;;;;;0.70;0.60;;;;;;;24.85;43.04;100924.50;5096750;28;20107;-78
2022/08/27 04:11:16;;;;;;;0.77;0.77;;;;;;;24.85;42.80;100940.88;5096376;28;20024;-77
2022/08/27 04:13:42;;;;;;;0.68;0.68;;;;;;;24.84;43.00;100938.44;5095906;28;20525;-78
2022/08/27 04:16:08;;;;;;;0.90;0.90;;;;;;;24.85;42.88;100945.50;5097765;28;20028;-77
2022/08/27 04:18:33;;;;;;;0.60;0.60;;;;;;;24.84;43.01;100943.88;5096324;28;20024;-77
2022/08/27 04:21:06;;;;;;;0.70;0.70;;;;;;;24.83;42.98;100943.03;5096766;28;20027;-77
2022/08/27 04:23:31;;;;;;;0.60;0.60;;;;;;;24.84;43.13;100933.78;5079904;28;20375;-77
2022/08/27 04:25:57;;;;;;;0.70;0.70;;;;;;;24.86;42.97;100937.03;5096484;28;20032;-77
2022/08/27 04:28:23;;;;;;;0.80;0.80;;;;;;;24.86;43.19;100937.03;5097590;28;20076;-78
2022/08/27 04:30:48;;;;;;;0.70;0.70;;;;;;;24.82;43.25;100927.75;5097697;28;20044;-78
2022/08/27 04:33:14;;;;;;;0.60;0.60;;;;;;;24.84;43.33;100932.97;5078131;28;20035;-78
2022/08/27 04:35:40;;;;;;;0.90;0.90;;;;;;;24.85;43.12;100935.44;5096169;28;20089;-77
2022/08/27 04:38:05;;;;;;;0.90;0.90;;;;;;;24.80;43.42;100929.94;5076590;28;20162;-78
2022/08/27 04:43:15;;;;;;;0.80;0.80;;;;;;;24.84;43.20;100941.16;5094088;28;20113;-78
2022/08/27 04:45:44;;;;;;;0.73;0.73;;;;;;;24.82;43.20;100932.38;5095976;28;20024;-78
2022/08/27 04:48:13;;;;;;;0.75;0.75;;;;;;;24.82;43.25;100932.38;5095340;28;20032;-78
2022/08/27 04:50:43;;;;;;;0.80;0.80;;;;;;;24.80;43.40;100927.22;5095123;28;20103;-78
2022/08/27 04:53:09;;;;;;;0.77;0.77;;;;;;;24.82;43.39;100933.22;5076613;28;20020;-77
2022/08/27 04:55:43;;;;;;;0.90;0.90;;;;;;;24.84;43.27;100922.03;5094438;28;20028;-78
2022/08/27 04:58:08;;;;;;;0.80;0.80;;;;;;;24.86;43.21;100925.31;5106996;28;20024;-78
2022/08/27 05:00:39;;;;;;;0.90;0.90;;;;;;;24.82;43.58;100932.38;5098877;28;20389;-78
2022/08/27 05:03:04;;;;;;;0.75;0.75;;;;;;;24.85;43.63;100924.50;5097236;28;20032;-78
2022/08/27 05:05:30;;;;;;;0.98;0.88;;;;;;;24.84;43.39;100922.84;5114856;28;20527;-78
2022/08/27 05:07:55;;;;;;;0.80;0.80;;;;;;;24.87;43.74;100930.50;5114713;28;20378;-78
2022/08/27 05:10:21;;;;;;;0.80;0.80;;;;;;;24.85;43.68;100927.22;5114570;28;20028;-78
2022/08/27 05:12:48;;;;;;;0.80;0.80;;;;;;;24.81;43.65;100928.84;5114892;28;20047;-78
2022/08/27 05:15:13;;;;;;;0.85;0.85;;;;;;;24.84;43.71;100920.09;5114521;28;20028;-78
2022/08/27 05:17:39;;;;;;;0.70;0.70;;;;;;;24.86;43.44;100926.13;5114938;28;20129;-78
2022/08/27 05:20:05;;;;;;;0.70;0.70;;;;;;;24.83;43.78;100918.44;5096575;28;20028;-78
2022/08/27 05:22:30;;;;;;;0.90;0.90;;;;;;;24.85;44.03;100926.38;5114335;28;20024;-78
2022/08/27 05:24:56;;;;;;;0.82;0.82;;;;;;;24.84;43.57;100922.03;5114359;28;20024;-78
2022/08/27 05:27:21;;;;;;;0.80;0.80;;;;;;;24.82;43.72;100925.03;5114716;28;20031;-78
2022/08/27 05:29:47;;;;;;;0.77;0.77;;;;;;;24.85;43.73;100929.13;5114333;28;20369;-78
2022/08/27 05:32:12;;;;;;;0.82;0.82;;;;;;;24.82;43.72;100925.03;5114589;28;20038;-78
2022/08/27 05:34:38;;;;;;;0.90;0.90;;;;;;;24.85;44.23;100913.56;5114122;28;20110;-78
2022/08/27 05:37:03;;;;;;;0.80;0.80;;;;;;;24.85;43.75;100919.03;5114410;28;20020;-78
2022/08/27 05:39:29;;;;;;;1.08;1.00;;;;;;;24.81;43.86;100912.44;5114178;28;20331;-78
2022/08/27 05:41:57;;;;;;;1.15;1.05;;;;;;;24.66;43.85;100909.66;5115856;28;20027;-78
2022/08/27 05:44:22;;;;;;;0.90;0.90;;;;;;;24.81;44.29;100920.63;5114471;28;20031;-78
2022/08/27 05:46:49;;;;;;;0.93;0.93;;;;;;;24.80;44.21;100921.75;5114118;28;20535;-78
2022/08/27 05:49:15;;;;;;;0.90;0.90;;;;;;;24.79;44.20;100924.75;5114277;28;20023;-78
2022/08/27 05:51:40;;;;;;;1.10;1.00;;;;;;;24.75;44.46;100932.66;5114689;28;20031;-78
2022/08/27 05:54:13;;;;;;;0.90;0.90;;;;;;;24.79;44.28;100920.09;5114105;28;20077;-78
2022/08/27 05:56:39;;;;;;;1.05;1.05;;;;;;;24.74;44.23;100922.81;5119206;28;20102;-78
2022/08/27 06:01:52;;;;;;;0.90;0.90;;;;;;;24.71;44.84;100912.41;5098935;28;20362;-78
2022/08/27 06:04:19;;;;;;;1.17;1.08;;;;;;;24.71;44.70;100913.22;5097898;28;20120;-78
2022/08/27 06:06:44;;;;;;;0.77;0.77;;;;;;;24.73;44.86;100910.22;5098094;28;20103;-78
2022/08/27 06:09:11;;;;;;;0.82;0.82;;;;;;;24.71;44.63;100906.94;5098019;28;20422;-78
2022/08/27 06:11:37;;;;;;;0.90;0.90;;;;;;;24.72;44.72;100903.13;5097703;28;20020;-78
2022/08/27 06:14:03;;;;;;;0.90;0.90;;;;;;;24.70;45.09;100906.13;5098199;28;20070;-78
2022/08/27 06:16:28;;;;;;;1.20;1.10;;;;;;;24.69;45.12;100909.13;5098226;28;20417;-78
2022/08/27 06:18:56;;;;;;;1.00;1.00;;;;;;;24.76;45.04;100901.50;5097937;28;20043;-78
2022/08/27 06:21:21;;;;;;;1.00;1.00;;;;;;;24.69;45.63;100895.47;5097567;28;20024;-78
2022/08/27 06:23:47;;;;;;;1.40;1.30;;;;;;;24.68;45.35;100899.28;5097685;28;20428;-78
2022/08/27 06:26:13;;;;;;;1.20;1.10;;;;;;;24.69;45.67;100900.94;5097791;28;20382;-78
2022/08/27 06:28:43;;;;;;;1.02;0.98;;;;;;;24.69;45.81;100901.75;5080087;28;20489;-78
2022/08/27 06:31:14;;;;;;;1.10;1.00;;;;;;;24.75;45.52;100899.88;5097627;28;20035;-78
2022/08/27 06:33:40;;;;;;;1.20;1.10;;;;;;;24.75;45.39;100902.59;5097728;28;20028;-78
2022/08/27 06:36:08;;;;;;;1.30;1.20;;;;;;;24.71;45.98;100902.28;5097805;28;20020;-78
2022/08/27 06:38:34;;;;;;;1.00;1.00;;;;;;;24.76;45.62;100898.75;5097628;28;20031;-78
2022/08/27 06:40:59;;;;;;;1.10;1.10;;;;;;;24.71;45.87;100898.75;5097540;28;20115;-78
2022/08/27 06:43:25;;;;;;;1.20;1.10;;;;;;;24.77;46.05;100896.84;5079130;28;20157;-78
2022/08/27 06:45:51;;;;;;;1.15;1.00;;;;;;;24.77;45.91;100905.88;5097261;28;20020;-78
2022/08/27 06:48:16;;;;;;;1.30;1.20;;;;;;;24.75;46.07;100897.13;5097499;28;20031;-78
2022/08/27 06:50:42;;;;;;;1.17;1.08;;;;;;;24.74;46.23;100892.75;5098436;28;20032;-78
2022/08/27 06:53:08;;;;;;;1.35;1.25;;;;;;;24.69;46.32;100896.28;5097125;28;20028;-78
2022/08/27 06:55:41;;;;;;;1.13;1.02;;;;;;;24.75;46.37;100891.66;5097664;28;20035;-78
2022/08/27 06:58:06;;;;;;;1.20;1.10;;;;;;;24.79;46.06;100895.50;5111090;28;20019;-78
2022/08/27 07:00:32;;;;;;;0.98;0.98;;;;;;;24.76;46.29;100900.69;5124328;28;20028;-78
2022/08/27 07:02:57;;;;;;;1.40;1.30;;;;;;;24.73;46.43;100899.28;5127040;28;20024;-78
2022/08/27 07:05:23;;;;;;;1.55;1.45;;;;;;;24.75;46.21;100905.34;5124638;28;20027;-77
2022/08/27 07:07:49;;;;;;;1.38;1.27;;;;;;;24.73;46.42;100907.50;5131578;28;20034;-77
2022/08/27 07:10:14;;;;;;;1.20;1.10;;;;;;;24.74;46.23;100904.50;5133663;28;20054;-78
2022/08/27 07:12:40;;;;;;;1.50;1.40;;;;;;;24.80;46.16;100905.34;5119961;28;20454;-77
2022/08/27 07:15:07;;;;;;;1.40;1.30;;;;;;;24.74;46.38;100899.03;5119016;28;20019;-77
2022/08/27 07:17:32;;;;;;;1.30;1.20;;;;;;;24.82;45.90;100903.16;5118673;28;20030;-77
2022/08/27 07:19:57;;;;;;;1.05;1.00;;;;;;;24.76;46.04;100890.56;5119093;28;20028;-78
2022/08/27 07:22:23;;;;;;;1.40;1.30;;;;;;;24.80;46.22;100891.69;5119191;28;20019;-78
2022/08/27 07:24:50;;;;;;;1.23;1.13;;;;;;;24.74;46.40;100895.47;5117806;28;20031;-77
2022/08/27 07:27:16;;;;;;;1.40;1.30;;;;;;;24.84;45.95;100892.75;5119096;28;20024;-78
2022/08/27 07:29:41;;;;;;;1.02;1.02;;;;;;;24.79;46.31;100892.75;5119708;28;20359;-78
2022/08/27 07:32:06;;;;;;;1.65;1.55;;;;;;;24.73;46.38;100894.66;5118862;28;20480;-78
2022/08/27 07:34:32;;;;;;;1.67;1.58;;;;;;;24.72;46.52;100892.19;5096887;28;20048;-77
2022/08/27 07:36:57;;;;;;;1.60;1.50;;;;;;;24.80;46.18;100899.03;5098441;28;20024;-78
2022/08/27 07:39:23;;;;;;;1.95;1.70;;;;;;;24.72;46.27;100884.81;5098504;28;20038;-78
2022/08/27 07:44:32;;;;;;;;;;;;;;;24.78;46.08;100888.38;5096523;28;20121;-78
2022/08/27 07:46:58;;;;;;;1.48;1.38;;;;;;;24.78;46.27;100879.34;5096298;28;20342;-78
2022/08/27 07:49:24;;;;;;;1.45;1.35;;;;;;;24.79;46.18;100881.81;5095194;28;20047;-78
2022/08/27 07:51:50;;;;;;;3.00;1.67;;;;;;;24.78;46.38;100884.81;5095014;28;20127;-78
2022/08/27 07:54:15;;;;;;;1.88;1.77;;;;;;;24.72;46.48;100873.88;5096016;28;20046;-78
2022/08/27 07:56:41;;;;;;;1.60;1.50;;;;;;;24.73;46.55;100871.97;5096004;28;20477;-78
2022/08/27 07:59:07;;;;;;;1.85;1.75;;;;;;;24.78;46.42;100880.16;5077626;28;20125;-77
2022/08/27 08:01:32;;;;;;;1.70;1.60;;;;;;;24.73;46.65;100880.16;5075813;28;20039;-77
2022/08/27 08:03:58;;;;;;;1.50;1.40;;;;;;;24.73;46.56;100874.69;5075869;28;20435;-77
2022/08/27 08:06:23;;;;;;;1.73;1.63;;;;;;;24.74;46.50;100884.53;5057759;28;20540;-78
2022/08/27 08:08:49;;;;;;;1.83;1.73;;;;;;;24.70;46.47;100884.28;5075228;28;20475;-77
2022/08/27 08:11:15;;;;;;;1.58;1.48;;;;;;;24.71;46.53;100872.22;5057660;28;20100;-77
2022/08/27 08:13:42;;;;;;;1.63;1.52;;;;;;;24.75;46.36;100880.72;5075187;28;20103;-77
2022/08/27 08:16:07;;;;;;;1.50;1.40;;;;;;;24.79;46.39;100878.28;5075632;28;20032;-78
2022/08/27 08:18:34;;;;;;;1.63;1.52;;;;;;;24.77;46.34;100870.34;5075720;28;20017;-78
2022/08/27 08:21:03;;;;;;;1.70;1.60;;;;;;;24.75;46.40;100869.81;5075658;28;20032;-77
2022/08/27 08:23:29;;;;;;;1.63;1.52;;;;;;;24.78;46.44;100868.44;5075652;28;20017;-77
2022/08/27 08:25:56;;;;;;;1.75;1.65;;;;;;;24.77;46.53;100872.22;5075634;28;20489;-77
2022/08/27 08:28:22;;;;;;;1.70;1.60;;;;;;;24.76;46.43;100876.09;5076719;28;20029;-78
2022/08/27 08:30:47;;;;;;;1.85;1.67;;;;;;;24.77;46.34;100861.31;5077707;28;20103;-78
2022/08/27 08:33:12;;;;;;;1.60;1.50;;;;;;;24.74;46.41;100870.88;5077379;28;20442;-78
2022/08/27 08:35:39;;;;;;;1.58;1.48;;;;;;;24.73;46.34;100867.34;5059655;28;20067;-78
2022/08/27 08:38:05;;;;;;;1.80;1.70;;;;;;;24.69;46.79;100860.75;5057126;28;20087;-78
2022/08/27 08:40:38;;;;;;;1.60;1.50;;;;;;;24.75;46.63;100861.59;5057271;28;20416;-78
2022/08/27 08:43:05;;;;;;;1.80;1.70;;;;;;;24.74;46.58;100851.75;5039035;28;20028;-78
2022/08/27 08:45:33;;;;;;;1.67;1.48;;;;;;;24.74;46.51;100858.03;5022219;28;20040;-78
2022/08/27 08:48:11;;;;;;;1.65;1.55;;;;;;;24.74;46.67;100854.47;5038993;28;20024;-78
2022/08/27 08:50:51;;;;;;;2.05;1.80;;;;;;;24.75;46.49;100842.47;5037655;28;20033;-78
2022/08/27 08:53:34;;;;;;;1.63;1.52;;;;;;;24.74;46.68;100849.81;5037831;28;20027;-78
2022/08/27 08:56:01;;;;;;;1.60;1.50;;;;;;;24.74;46.35;100851.75;5055443;28;20032;-78
2022/08/27 08:58:39;;;;;;;1.60;1.50;;;;;;;24.75;46.39;100853.41;5050544;28;20029;-78
2022/08/27 09:01:06;;;;;;;1.58;1.48;;;;;;;24.75;46.48;100853.41;5057023;28;20055;-78
2022/08/27 09:03:34;;;;;;;1.83;1.63;;;;;;;24.76;46.12;100849.56;5022741;28;20033;-78
2022/08/27 09:06:02;;;;;;;1.80;1.70;;;;;;;24.74;46.36;100846.28;5041182;28;20029;-78
2022/08/27 09:08:35;;;;;;;1.65;1.55;;;;;;;24.76;46.25;100849.56;5041435;28;20481;-78
2022/08/27 09:11:26;;;;;;;1.70;1.60;;;;;;;24.78;46.35;100847.38;5059535;28;20037;-78
2022/08/27 09:13:56;;;;;;;1.60;1.50;;;;;;;24.81;46.33;100846.84;5056807;28;20125;-78
2022/08/27 09:16:21;;;;;;;1.98;1.77;;;;;;;24.81;45.94;100841.38;5041430;28;20032;-78
2022/08/27 09:18:48;;;;;;;1.90;1.80;;;;;;;24.81;45.98;100838.63;5040625;28;20024;-78
2022/08/27 09:21:28;;;;;;;1.60;1.50;;;;;;;24.79;46.02;100835.34;5057220;28;20039;-78
2022/08/27 09:24:05;;;;;;;1.75;1.65;;;;;;;24.82;46.28;100843.03;5057713;28;20056;-78
2022/08/27 09:26:32;;;;;;;1.90;1.77;;;;;;;24.88;45.76;100836.44;5059267;28;20033;-78
2022/08/27 09:32:04;;;;;;;1.70;1.60;;;;;;;24.88;45.80;100844.66;5059766;28;20446;-78
2022/08/27 09:34:37;;;;;;;1.90;1.80;;;;;;;24.80;45.93;100833.44;5066017;28;20079;-77
2022/08/27 09:37:14;;;;;;;1.77;1.67;;;;;;;24.80;45.89;100828.81;5078254;28;20031;-77
2022/08/27 09:39:46;;;;;;;2.05;1.95;;;;;;;24.87;45.67;100829.34;5045056;28;20154;-77
2022/08/27 09:42:45;;;;;;;1.70;1.60;;;;;;;24.91;45.93;100829.63;5060886;28;20029;-77
2022/08/27 09:45:16;;;;;;;1.63;1.52;;;;;;;24.86;45.80;100821.44;4996761;28;20042;-79
2022/08/27 09:47:49;;;;;;;1.80;1.70;;;;;;;24.84;45.53;100823.63;4996260;28;20034;-79
2022/08/27 09:50:19;;;;;;;1.52;1.42;;;;;;;24.83;45.55;100822.78;4997066;28;20038;-77
2022/08/27 09:52:53;;;;;;;1.75;1.65;;;;;;;24.85;45.75;100814.31;4996396;28;20478;-77
2022/08/27 09:55:26;;;;;;;1.73;1.63;;;;;;;24.86;45.47;100822.22;4996556;28;20034;-77
2022/08/27 09:57:51;;;;;;;1.98;1.77;;;;;;;24.85;45.48;100825.25;4980105;28;20026;-77
2022/08/27 10:00:17;;;;;;;1.80;1.70;;;;;;;24.87;45.66;100810.22;4996807;28;20030;-77
2022/08/27 10:02:51;;;;;;;1.70;1.60;;;;;;;24.86;45.58;100815.97;4996553;28;20034;-77
2022/08/27 10:05:45;;;;;;;1.80;1.70;;;;;;;24.86;45.50;100811.31;5002003;28;20109;-75
2022/08/27 10:08:49;;;;;;;1.90;1.80;;;;;;;24.85;45.44;100806.94;4980351;28;20030;-75
2022/08/27 10:11:20;;;;;;;1.70;1.60;;;;;;;24.86;45.71;100799.56;5003121;28;20038;-75
2022/08/27 10:14:02;;;;;;;1.60;1.50;;;;;;;24.83;45.63;100806.38;4987132;28;20035;-75
2022/08/27 10:16:58;;;;;;;1.70;1.58;;;;;;;24.87;45.75;100801.19;4987763;28;20038;-75
2022/08/27 10:19:33;;;;;;;1.85;1.75;;;;;;;24.88;45.79;100803.66;5003275;28;20110;-75
2022/08/27 10:22:16;;;;;;;1.70;1.60;;;;;;;24.91;45.56;100813.22;5059842;28;20044;-75
2022/08/27 10:25:00;;;;;;;1.65;1.55;;;;;;;24.90;45.78;100812.38;5084633;28;20029;-75
2022/08/27 10:27:52;;;;;;;2.17;1.83;;;;;;;24.87;45.80;100812.13;5084416;28;20025;-75
2022/08/27 10:30:19;;;;;;;1.92;1.80;;;;;;;24.92;45.42;100806.66;5069757;28;20037;-75
2022/08/27 10:33:15;;;;;;;1.67;1.58;;;;;;;24.87;45.65;100796.56;5067214;28;20032;-75
2022/08/27 10:35:48;;;;;;;1.95;1.83;;;;;;;24.88;46.01;100798.16;5083696;28;20078;-75
2022/08/27 10:38:34;;;;;;;1.73;1.63;;;;;;;24.87;45.96;100798.44;5066913;28;20036;-75
2022/08/27 10:41:06;;;;;;;1.95;1.85;;;;;;;24.90;45.68;100801.44;5062720;28;20045;-75
2022/08/27 10:43:45;;;;;;;1.83;1.67;;;;;;;24.87;46.08;100790.25;5049503;28;20033;-75
2022/08/27 10:46:52;;;;;;;2.00;1.90;;;;;;;24.90;46.12;100795.97;5049129;28;20048;-75
2022/08/27 10:49:39;;;;;;;2.00;1.90;;;;;;;24.90;45.85;100789.69;5048574;28;20089;-75
2022/08/27 10:52:13;;;;;;;1.90;1.80;;;;;;;24.92;46.09;100787.50;5048189;28;20032;-75
2022/08/27 10:55:11;;;;;;;1.83;1.73;;;;;;;24.89;46.06;100780.69;5064983;28;20412;-75
2022/08/27 10:57:52;;;;;;;1.80;1.70;;;;;;;24.92;46.01;100777.41;5003945;28;20044;-75
2022/08/27 11:00:18;;;;;;;2.00;1.90;;;;;;;24.93;45.88;100780.97;4984408;28;20031;-72
2022/08/27 11:03:04;;;;;;;2.05;1.88;;;;;;;24.92;45.91;100765.63;4983856;28;20038;-72
2022/08/27 11:05:47;;;;;;;1.88;1.67;;;;;;;24.92;46.08;100765.63;4983684;28;20054;-72
2022/08/27 11:08:19;;;;;;;1.98;1.77;;;;;;;24.92;46.10;100766.47;4982231;28;20126;-72
2022/08/27 11:10:56;;;;;;;1.60;1.50;;;;;;;24.93;46.04;100773.56;4982299;28;20089;-72
2022/08/27 11:13:40;;;;;;;1.67;1.58;;;;;;;24.93;45.71;100765.38;4962333;28;20478;-72
2022/08/27 11:16:42;;;;;;;2.08;1.85;;;;;;;24.93;45.70;100762.63;4970267;28;20099;-72
2022/08/27 11:19:13;;;;;;;1.63;1.52;;;;;;;24.93;45.90;100768.09;4916654;29;20047;-72
2022/08/27 11:21:46;;;;;;;2.30;2.10;;;;;;;24.91;45.89;100756.63;4893279;29;20048;-72
2022/08/27 11:24:32;;;;;;;2.00;1.80;;;;;;;24.96;45.76;100757.69;4908465;29;20495;-72
2022/08/27 11:27:01;;;;;;;1.65;1.55;;;;;;;24.97;45.62;100756.63;4926170;29;20074;-72
2022/08/27 11:29:32;;;;;;;2.00;1.80;;;;;;;24.94;45.77;100758.00;4925985;29;20040;-72
2022/08/27 11:32:17;;;;;;;1.60;1.50;;;;;;;24.95;45.56;100750.63;4909951;29;20080;-72
2022/08/27 11:35:08;;;;;;;1.83;1.73;;;;;;;24.95;45.60;100753.34;4941203;28;20119;-72
2022/08/27 11:37:52;;;;;;;1.70;1.60;;;;;;;24.98;45.61;100750.06;4977241;28;20041;-72
2022/08/27 11:40:42;;;;;;;1.73;1.63;;;;;;;24.97;45.74;100756.63;4982603;28;20043;-72
2022/08/27 11:43:13;;;;;;;2.00;1.80;;;;;;;24.96;45.41;100752.25;4965000;28;20118;-72
2022/08/27 11:45:53;;;;;;;2.22;1.92;;;;;;;24.94;45.76;100749.81;4966593;28;20058;-72
2022/08/27 11:48:29;;;;;;;1.70;1.60;;;;;;;24.95;45.82;100745.97;4950962;28;20159;-72